Historique des mesures à Cassis (13260), France
Quotidien Résumé Mai 30, 2021 Unités:  Métrique/US    US   Métrique
Quotidien Hebdomadaire Mensuel Annuel
  Maximum: Minimum: Moyenne:
Température: 78.4 °F /  25.8 °C 65.3 °F /  18.5 °C 72.9 °F /  22.7 °C
Point de rosée: 58.8 °F /  14.9 °C 49.6 °F /  9.8 °C 52.5 °F /  11.4 °C
Humidité: 60% 40% 49%
Vitesse du vent: 19.4mph /  31.3km/h - 12.6mph /  20.3km/h
Rafales: 23.9mph /  38.5km/h - -
Vent- - WNW
Pression: 29.9 in /  1012.3 hPa 29.8 in /  1010.5 hPa -
Précipitations: 0 in /  0.0 mm    
Historical Graphs
 
 
Mesures pour : Mai 30, 2021
Heure Temperature Point de rosée Pression Vent Vitesse du vent Rafales Humidité Pluie (par heure)
00:11 72 °F /  22.2 °C 50.5 °F /  10.3 °C 29.9in /  1012.3hPa WNW 15.7mph /  25.2km/h 20.8mph /  33.5km/h 47% 0in /  0.0mm
01:11 70 °F /  21.1 °C 50 °F /  10 °C 29.9in /  1012.3hPa WNW 11.9mph /  19.1km/h 18.3mph /  29.5km/h 49% 0in /  0.0mm
02:11 68.7 °F /  20.4 °C 49.8 °F /  9.9 °C 29.9in /  1012.3hPa NW 17.6mph /  28.4km/h 23.5mph /  37.8km/h 51% 0in /  0.0mm
03:11 67.8 °F /  19.9 °C 49.6 °F /  9.8 °C 29.9in /  1012.0hPa WNW 8.7mph /  14km/h 22.1mph /  35.6km/h 52% 0in /  0.0mm
04:11 67.1 °F /  19.5 °C 49.8 °F /  9.9 °C 29.9in /  1011.8hPa NW 16.5mph /  26.6km/h 16.8mph /  27km/h 54% 0in /  0.0mm
05:11 66 °F /  18.9 °C 49.8 °F /  9.9 °C 29.9in /  1011.5hPa NW 17.5mph /  28.1km/h 18.3mph /  29.5km/h 56% 0in /  0.0mm
06:11 65.3 °F /  18.5 °C 50.2 °F /  10.1 °C 29.9in /  1012.0hPa NW 6.7mph /  10.8km/h 10.9mph /  17.6km/h 58% 0in /  0.0mm
07:11 65.5 °F /  18.6 °C 51.3 °F /  10.7 °C 29.9in /  1011.9hPa WNW 11.9mph /  19.1km/h 17.5mph /  28.1km/h 60% 0in /  0.0mm
08:11 76.1 °F /  24.5 °C 52 °F /  11.1 °C 29.9in /  1011.8hPa WNW 13mph /  20.9km/h 20.6mph /  33.1km/h 43% 0in /  0.0mm
09:11 69.6 °F /  20.9 °C 50.2 °F /  10.1 °C 29.9in /  1012.1hPa NW 17.2mph /  27.7km/h 23.5mph /  37.8km/h 50% 0in /  0.0mm
10:11 72.9 °F /  22.7 °C 50.7 °F /  10.4 °C 29.9in /  1011.9hPa West 19.4mph /  31.3km/h 19.4mph /  31.3km/h 46% 0in /  0.0mm
11:11 76.8 °F /  24.9 °C 52 °F /  11.1 °C 29.9in /  1011.6hPa NW 14.5mph /  23.4km/h 21.9mph /  35.3km/h 42% 0in /  0.0mm
12:11 77.9 °F /  25.5 °C 51.8 °F /  11 °C 29.9in /  1011.6hPa WNW 13.4mph /  21.6km/h 23.9mph /  38.5km/h 40% 0in /  0.0mm
13:11 78.4 °F /  25.8 °C 52.9 °F /  11.6 °C 29.9in /  1011.3hPa WNW 8.9mph /  14.4km/h 20.4mph /  32.8km/h 41% 0in /  0.0mm
14:11 77.2 °F /  25.1 °C 54.7 °F /  12.6 °C 29.9in /  1011.1hPa West 8.5mph /  13.7km/h 20.4mph /  32.8km/h 46% 0in /  0.0mm
15:11 77.5 °F /  25.3 °C 55.8 °F /  13.2 °C 29.9in /  1011.0hPa WNW 6.3mph /  10.1km/h 20.8mph /  33.5km/h 47% 0in /  0.0mm
16:11 77.4 °F /  25.2 °C 56.1 °F /  13.4 °C 29.8in /  1010.7hPa WNW 8.5mph /  13.7km/h 21.7mph /  34.9km/h 48% 0in /  0.0mm
17:11 77.7 °F /  25.4 °C 57 °F /  13.9 °C 29.8in /  1010.5hPa NW 13.2mph /  21.2km/h 18.8mph /  30.2km/h 49% 0in /  0.0mm
18:11 77.5 °F /  25.3 °C 57.6 °F /  14.2 °C 29.9in /  1010.8hPa WNW 13.2mph /  21.2km/h 19.4mph /  31.3km/h 50% 0in /  0.0mm
19:11 76.8 °F /  24.9 °C 58.8 °F /  14.9 °C 29.8in /  1010.6hPa WNW 10.1mph /  16.2km/h 20.8mph /  33.5km/h 54% 0in /  0.0mm
Observations météo à CASSIS
WU-History script by Weather Underground - 2 mb